Time;durP1;ratioP1;P1;durP2;ratioP2;P2;SDS_P1;SDS_P2;PMS_P1;PMS_P2;Temp;Humidity;BMP_temperature;BMP_pressure;BME280_temperature;BME280_humidity;BME280_pressure;Samples;Min_cycle;Max_cycle;Signal;HPM_P1;HPM_P2
2021/03/09 00:00:38;;;;;;;23.08;14.18;;;5.70;93.50;;;;;;5065687;28;20032;-38
2021/03/09 00:03:04;;;;;;;22.73;14.55;;;5.60;93.50;;;;;;5064941;28;20017;-40
2021/03/09 00:05:29;;;;;;;25.83;14.68;;;5.60;93.80;;;;;;5064931;28;20127;-39
2021/03/09 00:07:58;;;;;;;24.13;14.18;;;5.60;93.90;;;;;;5065024;28;20110;-41
2021/03/09 00:10:27;;;;;;;22.08;13.57;;;5.50;94.00;;;;;;5064783;28;20107;-39
2021/03/09 00:12:52;;;;;;;24.17;13.70;;;5.50;94.30;;;;;;5065442;28;20028;-37
2021/03/09 00:15:21;;;;;;;20.15;13.18;;;5.40;94.40;;;;;;5065380;28;20074;-39
2021/03/09 00:17:46;;;;;;;21.25;12.88;;;5.40;94.10;;;;;;5064788;28;20701;-39
2021/03/09 00:20:12;;;;;;;21.92;13.20;;;5.40;94.60;;;;;;5064995;28;20439;-40
2021/03/09 00:22:38;;;;;;;24.38;13.73;;;5.40;94.50;;;;;;5065088;28;20145;-40
2021/03/09 00:25:04;;;;;;;21.40;12.90;;;5.30;94.60;;;;;;5064854;28;20105;-39
2021/03/09 00:27:29;;;;;;;20.55;12.88;;;5.30;94.60;;;;;;5064745;28;20781;-37
2021/03/09 00:29:55;;;;;;;21.75;12.82;;;5.30;94.90;;;;;;5063650;28;20135;-40
2021/03/09 00:32:20;;;;;;;24.30;14.23;;;5.30;94.90;;;;;;5065161;28;20696;-38
2021/03/09 00:34:46;;;;;;;21.52;13.20;;;5.20;95.00;;;;;;5064900;28;20029;-36
2021/03/09 00:37:12;;;;;;;22.08;14.52;;;5.20;95.10;;;;;;5065486;28;20081;-39
2021/03/09 00:39:37;;;;;;;21.70;13.05;;;5.20;95.30;;;;;;5064992;28;20046;-41
2021/03/09 00:42:03;;;;;;;23.05;13.82;;;5.20;95.30;;;;;;5065489;28;20104;-39
2021/03/09 00:44:28;;;;;;;22.02;13.10;;;5.20;95.20;;;;;;5065598;28;20042;-38
2021/03/09 00:46:54;;;;;;;21.98;13.55;;;5.20;95.20;;;;;;5065310;28;20032;-39
2021/03/09 00:49:19;;;;;;;26.15;14.95;;;5.20;95.30;;;;;;5065084;28;20046;-39
2021/03/09 00:51:45;;;;;;;25.35;14.45;;;5.20;95.40;;;;;;5065060;28;20020;-39
2021/03/09 00:54:11;;;;;;;21.98;13.88;;;5.20;95.30;;;;;;5064474;28;20032;-37
2021/03/09 00:56:36;;;;;;;25.73;15.73;;;5.20;95.40;;;;;;5064892;28;20052;-40
2021/03/09 00:59:02;;;;;;;24.20;15.30;;;5.20;95.50;;;;;;5065254;28;20020;-38
2021/03/09 01:01:27;;;;;;;26.50;16.45;;;5.20;95.50;;;;;;5065363;28;20472;-39
2021/03/09 01:03:53;;;;;;;27.80;16.30;;;5.20;95.60;;;;;;5063622;28;20035;-40
2021/03/09 01:06:18;;;;;;;28.75;18.10;;;5.20;95.70;;;;;;5064981;28;20028;-39
2021/03/09 01:08:44;;;;;;;28.05;16.60;;;5.10;95.70;;;;;;5063757;28;20123;-39
2021/03/09 01:11:09;;;;;;;30.02;16.92;;;5.10;95.60;;;;;;5064877;28;20040;-36
2021/03/09 01:13:38;;;;;;;28.92;17.27;;;5.10;95.80;;;;;;5065108;28;20028;-39
2021/03/09 01:16:04;;;;;;;28.88;16.92;;;5.10;95.70;;;;;;5060927;28;20036;-38
2021/03/09 01:18:30;;;;;;;32.50;17.63;;;5.10;95.80;;;;;;5064886;28;20040;-39
2021/03/09 01:20:55;;;;;;;31.60;19.10;;;5.10;95.60;;;;;;5064239;28;20108;-39
2021/03/09 01:23:21;;;;;;;28.92;18.00;;;5.10;95.90;;;;;;5064950;28;20388;-39
2021/03/09 01:25:46;;;;;;;28.13;17.65;;;5.10;96.00;;;;;;5064646;28;20081;-39
2021/03/09 01:28:12;;;;;;;31.42;17.55;;;5.10;96.20;;;;;;5062803;28;20020;-39
2021/03/09 01:30:41;;;;;;;32.97;19.20;;;5.00;96.20;;;;;;5064424;28;20431;-40
2021/03/09 01:33:06;;;;;;;32.75;20.27;;;5.00;96.30;;;;;;5064617;28;20367;-39
2021/03/09 01:35:31;;;;;;;33.28;19.40;;;5.00;96.60;;;;;;5063961;28;20055;-38
2021/03/09 01:37:57;;;;;;;30.08;18.38;;;5.00;96.40;;;;;;5064866;28;20143;-38
2021/03/09 01:40:24;;;;;;;32.92;18.77;;;5.00;96.40;;;;;;5064205;28;20486;-39
2021/03/09 01:42:50;;;;;;;34.08;19.63;;;5.00;96.50;;;;;;5064276;28;20097;-40
2021/03/09 01:45:16;;;;;;;31.88;19.40;;;5.00;96.60;;;;;;5064364;28;20024;-39
2021/03/09 01:47:44;;;;;;;40.22;22.13;;;5.00;96.70;;;;;;5064273;28;20048;-39
2021/03/09 01:50:12;;;;;;;34.00;20.38;;;5.00;96.90;;;;;;5063065;28;20032;-37
2021/03/09 01:52:40;;;;;;;36.63;21.73;;;5.00;97.00;;;;;;5064146;28;20025;-38
2021/03/09 01:55:10;;;;;;;39.67;22.33;;;4.90;97.10;;;;;;5064082;28;20107;-39
2021/03/09 01:57:37;;;;;;;37.80;22.70;;;5.00;97.10;;;;;;5062915;28;20083;-38
2021/03/09 02:00:06;;;;;;;45.33;23.65;;;4.90;97.20;;;;;;5064246;28;20024;-39
2021/03/09 02:02:32;;;;;;;38.78;23.65;;;4.90;97.50;;;;;;5063959;28;20021;-39
2021/03/09 02:04:58;;;;;;;42.63;23.45;;;4.90;97.40;;;;;;5063706;28;20448;-39
2021/03/09 02:07:23;;;;;;;38.13;23.55;;;4.90;97.60;;;;;;5063816;28;20063;-40
2021/03/09 02:09:49;;;;;;;39.70;22.10;;;4.90;97.50;;;;;;5064197;28;20047;-40
2021/03/09 02:12:29;;;;;;;40.30;22.95;;;4.90;97.40;;;;;;5063540;28;20250;-39
2021/03/09 02:15:10;;;;;;;41.67;23.98;;;4.90;97.50;;;;;;5044050;28;20028;-37
2021/03/09 02:17:49;;;;;;;42.00;23.98;;;4.90;97.60;;;;;;5060158;28;20035;-37
2021/03/09 02:20:48;;;;;;;43.92;24.88;;;4.90;97.80;;;;;;5063154;28;20512;-38
2021/03/09 02:23:33;;;;;;;41.50;22.98;;;4.90;97.70;;;;;;5062597;28;20025;-38
2021/03/09 02:26:21;;;;;;;39.10;23.85;;;4.90;97.70;;;;;;5062728;28;20033;-38
2021/03/09 02:29:17;;;;;;;38.63;23.00;;;4.90;97.80;;;;;;5061993;28;20124;-39
2021/03/09 02:31:47;;;;;;;38.42;23.27;;;4.90;97.70;;;;;;5063068;28;20044;-39
2021/03/09 02:34:16;;;;;;;38.65;24.00;;;4.90;97.80;;;;;;5066412;28;20116;-36
2021/03/09 02:36:43;;;;;;;42.83;25.30;;;4.90;97.70;;;;;;5066573;28;20039;-38
2021/03/09 02:39:13;;;;;;;43.33;25.10;;;4.90;97.70;;;;;;5065851;28;20139;-39
2021/03/09 02:41:44;;;;;;;47.80;25.55;;;4.90;97.80;;;;;;5066307;28;20039;-39
2021/03/09 02:44:13;;;;;;;41.50;24.35;;;4.90;97.80;;;;;;5066728;28;20023;-39
2021/03/09 02:46:40;;;;;;;42.08;24.40;;;4.90;97.80;;;;;;5065730;28;20142;-39
2021/03/09 02:49:08;;;;;;;44.20;26.45;;;4.90;97.80;;;;;;5066287;28;20054;-39
2021/03/09 02:51:42;;;;;;;46.58;27.83;;;4.90;97.80;;;;;;5066584;28;20089;-38
2021/03/09 02:54:13;;;;;;;48.65;27.40;;;5.00;97.90;;;;;;5066062;28;20017;-38
2021/03/09 02:56:40;;;;;;;50.83;27.13;;;5.00;97.90;;;;;;5066074;28;20061;-38
2021/03/09 02:59:09;;;;;;;45.08;27.00;;;5.00;97.90;;;;;;5065775;28;20673;-39
2021/03/09 03:01:36;;;;;;;45.35;26.92;;;5.00;97.90;;;;;;5066094;28;20039;-38
2021/03/09 03:04:04;;;;;;;47.30;27.40;;;5.00;97.90;;;;;;5066084;28;20033;-39
2021/03/09 03:06:32;;;;;;;48.35;28.58;;;5.00;97.90;;;;;;5046058;28;20032;-40
2021/03/09 03:09:01;;;;;;;51.55;30.13;;;5.00;98.10;;;;;;5060910;28;20555;-39
2021/03/09 03:11:27;;;;;;;51.10;30.60;;;5.00;98.00;;;;;;5065858;28;20036;-38
2021/03/09 03:13:53;;;;;;;50.17;30.10;;;5.00;98.10;;;;;;5065300;28;20037;-37
2021/03/09 03:16:21;;;;;;;52.40;31.33;;;5.00;98.10;;;;;;5066125;28;20129;-38
2021/03/09 03:18:48;;;;;;;54.08;32.20;;;5.00;98.10;;;;;;5065642;28;20028;-36
2021/03/09 03:21:16;;;;;;;49.50;30.38;;;5.00;98.10;;;;;;5065584;28;20040;-38
2021/03/09 03:23:43;;;;;;;51.55;31.10;;;5.00;98.10;;;;;;5065723;28;20504;-38
2021/03/09 03:26:13;;;;;;;55.47;32.83;;;5.00;98.10;;;;;;5065359;28;20039;-39
2021/03/09 03:28:45;;;;;;;57.47;31.88;;;5.00;98.20;;;;;;5064832;28;20020;-38
2021/03/09 03:31:11;;;;;;;53.70;32.30;;;5.00;98.20;;;;;;5066083;28;20036;-38
2021/03/09 03:33:40;;;;;;;55.40;32.90;;;5.00;98.20;;;;;;5065447;28;20400;-38
2021/03/09 03:36:06;;;;;;;57.03;33.30;;;5.00;98.20;;;;;;5064970;28;20218;-39
2021/03/09 03:38:37;;;;;;;53.63;31.45;;;5.00;98.30;;;;;;5065487;28;20115;-39
2021/03/09 03:41:04;;;;;;;55.15;32.03;;;5.00;98.10;;;;;;5065670;28;20031;-39
2021/03/09 03:43:30;;;;;;;58.60;31.92;;;5.00;98.00;;;;;;5063312;28;20024;-37
2021/03/09 03:45:56;;;;;;;56.22;33.22;;;5.10;98.00;;;;;;5065724;28;20173;-39
2021/03/09 03:48:22;;;;;;;61.70;35.45;;;5.10;98.00;;;;;;5065702;28;20151;-39
2021/03/09 03:50:49;;;;;;;60.65;35.95;;;5.10;98.20;;;;;;5064646;28;20025;-39
2021/03/09 03:53:25;;;;;;;61.20;33.97;;;5.10;98.20;;;;;;5065384;28;20444;-38
2021/03/09 03:56:27;;;;;;;57.47;34.78;;;5.10;98.20;;;;;;5064547;28;20142;-40
2021/03/09 03:59:18;;;;;;;55.13;33.28;;;5.10;98.20;;;;;;5058264;28;20139;-39
2021/03/09 04:01:46;;;;;;;56.75;34.40;;;5.10;98.10;;;;;;5064770;28;20031;-39
2021/03/09 04:04:14;;;;;;;55.20;33.75;;;5.10;98.00;;;;;;5064620;28;20531;-39
2021/03/09 04:06:48;;;;;;;64.72;36.50;;;5.10;98.00;;;;;;5064718;28;20025;-39
2021/03/09 04:09:15;;;;;;;58.40;35.22;;;5.10;98.10;;;;;;5065002;28;20028;-39
2021/03/09 04:11:44;;;;;;;63.10;36.65;;;5.10;98.20;;;;;;5064221;28;20043;-39
2021/03/09 04:14:12;;;;;;;67.63;38.55;;;5.10;98.10;;;;;;5064643;28;20380;-38
2021/03/09 04:16:40;;;;;;;67.43;38.30;;;5.10;98.30;;;;;;5064342;28;20039;-38
2021/03/09 04:19:06;;;;;;;59.42;36.80;;;5.20;98.30;;;;;;5064880;28;20036;-39
2021/03/09 04:21:33;;;;;;;60.80;37.67;;;5.10;98.20;;;;;;5064347;28;20371;-40
2021/03/09 04:24:01;;;;;;;63.17;37.65;;;5.10;98.30;;;;;;5064360;28;20062;-39
2021/03/09 04:26:27;;;;;;;66.65;39.15;;;5.20;98.40;;;;;;5064750;28;20223;-38
2021/03/09 04:28:54;;;;;;;65.40;38.70;;;5.10;98.40;;;;;;5064556;28;20078;-39
2021/03/09 04:31:20;;;;;;;60.15;38.03;;;5.20;98.40;;;;;;5063877;28;20081;-39
2021/03/09 04:33:50;;;;;;;65.07;40.60;;;5.20;98.30;;;;;;5064732;28;20086;-38
2021/03/09 04:36:20;;;;;;;67.50;39.15;;;5.20;98.40;;;;;;5064128;28;20414;-38
2021/03/09 04:38:47;;;;;;;69.50;40.28;;;5.20;98.30;;;;;;5063784;28;20097;-37
2021/03/09 04:41:14;;;;;;;64.78;39.25;;;5.20;98.20;;;;;;5064100;28;20196;-39
2021/03/09 04:43:45;;;;;;;59.67;36.42;;;5.20;98.30;;;;;;5064592;28;20048;-39
2021/03/09 04:46:11;;;;;;;61.03;36.97;;;5.20;98.20;;;;;;5063393;28;20056;-39
2021/03/09 04:48:38;;;;;;;62.55;37.60;;;5.20;98.30;;;;;;5064088;28;20117;-37
2021/03/09 04:51:14;;;;;;;66.30;38.78;;;5.20;98.30;;;;;;5064424;28;20441;-39
2021/03/09 04:53:40;;;;;;;66.88;38.97;;;5.20;98.30;;;;;;5063711;28;20033;-39
2021/03/09 04:56:06;;;;;;;64.63;38.50;;;5.20;98.30;;;;;;5063466;28;20186;-39
2021/03/09 04:58:32;;;;;;;64.57;37.33;;;5.20;98.40;;;;;;5064455;28;20180;-38
2021/03/09 05:01:01;;;;;;;67.70;38.60;;;5.20;98.40;;;;;;5064032;28;20622;-40
2021/03/09 05:03:26;;;;;;;61.50;37.50;;;5.20;98.40;;;;;;5063797;28;20473;-39
2021/03/09 05:05:52;;;;;;;64.80;37.95;;;5.20;98.40;;;;;;5063688;28;20467;-39
2021/03/09 05:08:19;;;;;;;68.57;39.30;;;5.20;98.50;;;;;;5063254;28;20093;-39
2021/03/09 05:10:45;;;;;;;69.15;40.20;;;5.20;98.40;;;;;;5064128;28;20028;-39
2021/03/09 05:13:19;;;;;;;64.32;40.45;;;5.30;98.50;;;;;;5063265;28;20044;-40
2021/03/09 05:15:47;;;;;;;67.55;41.45;;;5.30;98.50;;;;;;5063924;28;20751;-40
2021/03/09 05:18:13;;;;;;;72.10;44.28;;;5.30;98.40;;;;;;5063364;28;20119;-38
2021/03/09 05:20:39;;;;;;;85.22;51.67;;;5.30;98.50;;;;;;5063432;28;20135;-38
2021/03/09 05:23:05;;;;;;;78.70;49.78;;;5.30;98.50;;;;;;5063477;28;20024;-37
2021/03/09 05:25:31;;;;;;;94.00;57.58;;;5.30;98.50;;;;;;5063636;28;20020;-38
2021/03/09 05:27:57;;;;;;;93.10;55.08;;;5.30;98.60;;;;;;5063672;28;20016;-38
2021/03/09 05:30:23;;;;;;;88.40;52.80;;;5.30;98.60;;;;;;5063837;28;20287;-37
2021/03/09 05:32:49;;;;;;;91.53;53.78;;;5.30;98.50;;;;;;5063695;28;20056;-35
2021/03/09 05:35:16;;;;;;;89.95;53.15;;;5.30;98.50;;;;;;5063472;28;20055;-35
2021/03/09 05:37:43;;;;;;;89.10;54.13;;;5.30;98.50;;;;;;5063375;28;20151;-39
2021/03/09 05:40:10;;;;;;;89.57;55.17;;;5.30;98.50;;;;;;5063979;28;20020;-39
2021/03/09 05:42:36;;;;;;;80.85;51.85;;;5.30;98.50;;;;;;5063520;28;20040;-39
2021/03/09 05:45:04;;;;;;;82.82;53.03;;;5.30;98.50;;;;;;5063579;28;20039;-39
2021/03/09 05:47:30;;;;;;;91.72;55.35;;;5.30;98.50;;;;;;5063783;28;20032;-41
2021/03/09 05:49:58;;;;;;;90.95;53.45;;;5.30;98.50;;;;;;5063270;28;20027;-40
2021/03/09 05:52:24;;;;;;;84.75;51.58;;;5.30;98.50;;;;;;5063816;28;20043;-38
2021/03/09 05:54:49;;;;;;;87.55;54.25;;;5.30;98.50;;;;;;5062948;28;20067;-39
2021/03/09 05:57:15;;;;;;;86.88;53.05;;;5.30;98.50;;;;;;5063128;28;20075;-39
2021/03/09 05:59:42;;;;;;;85.50;53.33;;;5.40;98.50;;;;;;5063452;28;20032;-39
2021/03/09 06:02:07;;;;;;;86.28;52.13;;;5.40;98.50;;;;;;5062992;28;20024;-40
2021/03/09 06:04:34;;;;;;;92.97;57.38;;;5.40;98.40;;;;;;5063318;28;20111;-39
2021/03/09 06:07:00;;;;;;;85.65;52.50;;;5.40;98.50;;;;;;5064854;28;20033;-39
2021/03/09 06:09:42;;;;;;;82.25;50.22;;;5.40;98.40;;;;;;5066420;28;20024;-39
2021/03/09 06:12:09;;;;;;;89.05;54.05;;;5.40;98.40;;;;;;5067358;28;20036;-39
2021/03/09 06:14:39;;;;;;;100.50;64.15;;;5.40;98.40;;;;;;5066968;28;20025;-37
2021/03/09 06:17:05;;;;;;;97.97;62.67;;;5.40;98.50;;;;;;5066559;28;20506;-39
2021/03/09 06:19:46;;;;;;;106.70;64.57;;;5.40;98.50;;;;;;5067414;28;20025;-39
2021/03/09 06:22:13;;;;;;;98.78;64.07;;;5.40;98.50;;;;;;5063059;28;20041;-39
2021/03/09 06:24:39;;;;;;;87.70;56.33;;;5.40;98.50;;;;;;5062075;28;20115;-40
2021/03/09 06:27:23;;;;;;;93.75;58.70;;;5.40;98.40;;;;;;5065294;28;20432;-40
2021/03/09 06:29:48;;;;;;;97.05;58.50;;;5.50;98.40;;;;;;5066764;28;20684;-40
2021/03/09 06:32:14;;;;;;;94.05;59.80;;;5.50;98.30;;;;;;5060271;28;20575;-39
2021/03/09 06:34:39;;;;;;;95.32;58.40;;;5.50;98.30;;;;;;5056572;28;20032;-40
2021/03/09 06:37:17;;;;;;;91.05;55.38;;;5.50;98.40;;;;;;5061190;28;20032;-39
2021/03/09 06:40:06;;;;;;;94.00;59.55;;;5.50;98.30;;;;;;5065185;28;20040;-40
2021/03/09 06:42:36;;;;;;;87.20;54.15;;;5.50;98.30;;;;;;5055092;28;20048;-40
2021/03/09 06:45:16;;;;;;;84.25;52.45;;;5.60;98.30;;;;;;5060715;28;20441;-40
2021/03/09 06:47:42;;;;;;;86.30;52.90;;;5.60;98.20;;;;;;5056064;28;20116;-40
2021/03/09 06:50:10;;;;;;;90.15;52.45;;;5.60;98.20;;;;;;5065561;28;20097;-43
2021/03/09 06:52:36;;;;;;;72.90;46.13;;;5.60;98.10;;;;;;5063622;28;20032;-40
2021/03/09 06:55:02;;;;;;;75.18;48.17;;;5.60;98.10;;;;;;5057516;28;20149;-41
2021/03/09 06:57:28;;;;;;;80.18;49.30;;;5.70;98.10;;;;;;5066081;28;20048;-36
2021/03/09 06:59:55;;;;;;;77.20;47.22;;;5.70;98.10;;;;;;5065932;28;20031;-40
2021/03/09 07:02:22;;;;;;;74.03;48.25;;;5.70;98.00;;;;;;5061948;28;20103;-40
2021/03/09 07:04:52;;;;;;;80.15;51.10;;;5.70;98.00;;;;;;5065198;28;20477;-38
2021/03/09 07:07:34;;;;;;;74.93;47.83;;;5.70;98.00;;;;;;5064727;28;20437;-39
2021/03/09 07:10:02;;;;;;;83.55;49.90;;;5.80;98.00;;;;;;5066293;28;20025;-40
2021/03/09 07:12:29;;;;;;;66.57;43.53;;;5.80;98.10;;;;;;5064813;28;20033;-39
2021/03/09 07:14:56;;;;;;;66.30;43.70;;;5.80;98.10;;;;;;5068166;28;20029;-40
2021/03/09 07:17:35;;;;;;;69.10;43.42;;;5.80;98.10;;;;;;5066115;28;20135;-39
2021/03/09 07:20:02;;;;;;;65.95;42.58;;;5.80;98.20;;;;;;5066060;28;20033;-39
2021/03/09 07:22:29;;;;;;;66.50;41.88;;;5.80;98.30;;;;;;5066041;28;20041;-40
2021/03/09 07:25:06;;;;;;;61.50;38.85;;;5.80;98.30;;;;;;5066532;28;20029;-40
2021/03/09 07:28:03;;;;;;;57.92;37.55;;;5.80;98.20;;;;;;5065268;28;20452;-40
2021/03/09 07:30:39;;;;;;;57.15;35.92;;;5.80;98.20;;;;;;5046688;28;20437;-40
2021/03/09 07:33:07;;;;;;;55.63;34.85;;;5.90;98.20;;;;;;5062884;28;20028;-39
2021/03/09 07:35:33;;;;;;;53.28;34.17;;;5.90;98.20;;;;;;5065031;28;20016;-40
2021/03/09 07:37:59;;;;;;;49.97;32.25;;;5.90;98.20;;;;;;5065556;28;20047;-40
2021/03/09 07:40:28;;;;;;;54.30;34.67;;;5.90;98.10;;;;;;5065151;28;20028;-40
2021/03/09 07:42:55;;;;;;;57.38;35.22;;;6.00;98.30;;;;;;5064965;28;20029;-37
2021/03/09 07:45:24;;;;;;;55.40;33.53;;;6.00;98.20;;;;;;5065440;28;20103;-39
2021/03/09 07:47:57;;;;;;;47.70;31.67;;;6.00;98.20;;;;;;5064620;28;20067;-40
2021/03/09 07:50:25;;;;;;;51.63;32.20;;;6.10;98.20;;;;;;5063128;28;20028;-38
2021/03/09 07:53:03;;;;;;;46.65;30.83;;;6.10;98.20;;;;;;5065507;28;20020;-41
2021/03/09 07:55:33;;;;;;;45.50;29.85;;;6.10;98.20;;;;;;5065394;28;20040;-44
2021/03/09 07:58:22;;;;;;;44.70;30.00;;;6.20;98.30;;;;;;5066009;28;20175;-40
2021/03/09 08:00:49;;;;;;;46.55;30.05;;;6.20;98.30;;;;;;5065436;28;20064;-40
2021/03/09 08:03:41;;;;;;;40.60;26.58;;;6.20;98.60;;;;;;5065034;28;20016;-39
2021/03/09 08:06:11;;;;;;;39.38;26.77;;;6.20;98.40;;;;;;5063842;28;20048;-40
2021/03/09 08:08:42;;;;;;;38.90;25.77;;;6.30;98.40;;;;;;5065288;28;20013;-42
2021/03/09 08:11:28;;;;;;;41.22;24.48;;;6.30;98.30;;;;;;5065865;28;20044;-40
2021/03/09 08:14:02;;;;;;;37.50;23.58;;;6.40;98.20;;;;;;5057810;28;20029;-39
2021/03/09 08:16:34;;;;;;;38.28;25.00;;;6.40;98.10;;;;;;5065390;28;20047;-39
2021/03/09 08:19:23;;;;;;;36.22;23.75;;;6.50;98.10;;;;;;5065455;28;20432;-38
2021/03/09 08:21:55;;;;;;;37.25;23.00;;;6.50;98.00;;;;;;5065130;28;20105;-39
2021/03/09 08:24:41;;;;;;;32.05;22.58;;;6.50;98.00;;;;;;5064684;28;20115;-40
2021/03/09 08:27:28;;;;;;;33.05;21.45;;;6.60;98.00;;;;;;5064348;28;20039;-39
2021/03/09 08:29:55;;;;;;;33.88;21.77;;;6.60;97.90;;;;;;5063440;28;20480;-39
2021/03/09 08:32:23;;;;;;;31.42;19.52;;;6.60;97.90;;;;;;5065345;28;20679;-40
2021/03/09 08:34:50;;;;;;;28.80;19.15;;;6.70;97.90;;;;;;5064437;28;20597;-41
2021/03/09 08:37:32;;;;;;;34.10;21.15;;;6.80;97.90;;;;;;5064295;28;20032;-40
2021/03/09 08:40:17;;;;;;;30.05;19.92;;;6.80;97.80;;;;;;5063714;28;20028;-39
2021/03/09 08:43:01;;;;;;;30.08;19.48;;;6.90;97.80;;;;;;5045454;28;20044;-41
2021/03/09 08:45:54;;;;;;;24.13;15.90;;;6.90;98.10;;;;;;5061546;28;20028;-41
2021/03/09 08:48:49;;;;;;;26.50;15.98;;;7.10;97.90;;;;;;5064797;28;20020;-40
2021/03/09 08:51:50;;;;;;;20.58;13.88;;;7.10;97.90;;;;;;5060884;28;20031;-42
2021/03/09 08:54:36;;;;;;;20.08;12.95;;;7.10;97.70;;;;;;5021221;28;20033;-40
2021/03/09 08:57:17;;;;;;;17.08;11.90;;;7.10;97.80;;;;;;5052359;28;20128;-39
2021/03/09 08:59:48;;;;;;;15.50;10.93;;;7.10;97.80;;;;;;5063562;28;20059;-40
2021/03/09 09:02:24;;;;;;;18.45;10.55;;;7.10;97.80;;;;;;5064367;28;20028;-38
2021/03/09 09:04:52;;;;;;;17.85;9.15;;;7.20;97.80;;;;;;5064424;28;20086;-41
2021/03/09 09:07:35;;;;;;;11.20;8.63;;;7.30;97.80;;;;;;5064370;28;20035;-40
2021/03/09 09:10:22;;;;;;;11.77;7.70;;;7.30;97.70;;;;;;5064616;28;20561;-41
2021/03/09 09:12:53;;;;;;;14.68;8.10;;;7.40;97.60;;;;;;5062132;28;20029;-39
2021/03/09 09:15:26;;;;;;;8.85;6.00;;;7.40;97.60;;;;;;5064729;28;20146;-38
2021/03/09 09:17:57;;;;;;;9.98;6.32;;;7.40;97.70;;;;;;5064446;28;20123;-41
2021/03/09 09:20:24;;;;;;;11.27;6.45;;;7.40;97.70;;;;;;5063937;28;20025;-38
2021/03/09 09:22:52;;;;;;;11.27;5.80;;;7.40;97.70;;;;;;5064269;28;20515;-40
2021/03/09 09:25:19;;;;;;;8.27;5.47;;;7.40;97.70;;;;;;5064587;28;20483;-39
2021/03/09 09:27:48;;;;;;;9.65;5.82;;;7.40;97.60;;;;;;5063922;28;20081;-36
2021/03/09 09:30:18;;;;;;;8.18;4.57;;;7.50;97.60;;;;;;5064489;28;20028;-40
2021/03/09 09:32:56;;;;;;;9.70;5.55;;;7.60;97.60;;;;;;5065053;28;20105;-41
2021/03/09 09:35:25;;;;;;;10.18;4.78;;;7.60;97.40;;;;;;5064372;28;20094;-46
2021/03/09 09:37:54;;;;;;;6.43;4.75;;;7.70;97.00;;;;;;5059616;28;20159;-42
2021/03/09 09:40:23;;;;;;;4.72;3.85;;;7.70;97.10;;;;;;5049003;28;20016;-37
2021/03/09 09:42:57;;;;;;;5.80;3.88;;;7.80;97.20;;;;;;5067354;28;20594;-39
2021/03/09 09:45:23;;;;;;;8.25;4.00;;;7.90;97.10;;;;;;5068574;28;20033;-39
2021/03/09 09:47:50;;;;;;;9.30;4.30;;;7.90;96.30;;;;;;5068197;28;20035;-39
2021/03/09 09:50:18;;;;;;;5.68;3.80;;;8.00;96.50;;;;;;5069524;28;20115;-38
2021/03/09 09:52:59;;;;;;;4.80;3.60;;;7.90;96.50;;;;;;5068571;28;20031;-40
2021/03/09 09:55:27;;;;;;;7.28;4.13;;;8.00;96.50;;;;;;5068746;28;20116;-39
2021/03/09 09:57:54;;;;;;;5.18;4.07;;;7.90;96.40;;;;;;5068112;28;20048;-41
2021/03/09 10:00:25;;;;;;;6.60;3.92;;;8.00;96.60;;;;;;5049065;28;20488;-41
2021/03/09 10:03:18;;;;;;;6.70;3.60;;;8.10;96.60;;;;;;5048038;28;20051;-40
2021/03/09 10:05:44;;;;;;;;;;;8.20;96.60;;;;;;5029385;28;20034;-40
2021/03/09 10:08:12;;;;;;;5.15;3.50;;;8.20;96.30;;;;;;5045216;28;19912;-40
2021/03/09 10:10:39;;;;;;;5.35;2.80;;;8.20;96.20;;;;;;5028407;28;20037;-39
2021/03/09 10:13:22;;;;;;;5.35;2.45;;;8.20;95.70;;;;;;5043312;28;20056;-42
2021/03/09 10:15:48;;;;;;;3.95;2.22;;;8.10;95.20;;;;;;5028521;28;20040;-39
2021/03/09 10:18:30;;;;;;;5.35;2.45;;;8.00;95.10;;;;;;5044065;28;20485;-40
2021/03/09 10:21:15;;;;;;;3.05;1.80;;;7.90;95.20;;;;;;5048384;28;20091;-38
2021/03/09 10:23:55;;;;;;;2.22;1.80;;;7.80;95.60;;;;;;5047902;28;20071;-41
2021/03/09 10:26:34;;;;;;;3.67;2.20;;;7.70;95.40;;;;;;5028777;28;20719;-40
2021/03/09 10:29:01;;;;;;;4.35;1.90;;;7.60;95.50;;;;;;5046536;28;20036;-40
2021/03/09 10:31:36;;;;;;;3.97;2.22;;;7.60;95.70;;;;;;5047568;28;20029;-39
2021/03/09 10:34:03;;;;;;;5.57;2.13;;;7.70;95.90;;;;;;5048268;28;20074;-41
2021/03/09 10:36:48;;;;;;;3.42;1.98;;;7.80;96.10;;;;;;5028262;28;20666;-39
2021/03/09 10:39:14;;;;;;;3.00;2.05;;;7.90;95.30;;;;;;5044493;28;20029;-42
2021/03/09 10:41:40;;;;;;;3.60;1.70;;;7.90;95.30;;;;;;5048028;28;20162;-41
2021/03/09 10:44:06;;;;;;;2.80;1.58;;;7.90;95.30;;;;;;5047203;28;20122;-36
2021/03/09 10:46:34;;;;;;;1.77;1.35;;;8.00;95.40;;;;;;5048163;28;20036;-38
2021/03/09 10:49:01;;;;;;;1.60;1.50;;;8.10;95.10;;;;;;5047878;28;20121;-41
2021/03/09 10:51:26;;;;;;;1.90;1.35;;;8.30;95.10;;;;;;5047467;28;20137;-40
2021/03/09 10:53:52;;;;;;;1.95;1.38;;;8.40;95.00;;;;;;5047149;28;20164;-37
2021/03/09 10:56:18;;;;;;;1.60;1.20;;;8.40;94.80;;;;;;5047927;28;20036;-39
2021/03/09 10:58:43;;;;;;;4.63;1.60;;;8.50;94.90;;;;;;5055898;28;20044;-40
2021/03/09 11:01:15;;;;;;;1.98;1.10;;;8.50;94.60;;;;;;5069073;28;20035;-39
2021/03/09 11:03:41;;;;;;;1.23;1.00;;;8.50;94.40;;;;;;5067656;28;20361;-39
2021/03/09 11:06:06;;;;;;;3.95;1.77;;;8.60;94.10;;;;;;5067152;28;20039;-39
2021/03/09 11:08:32;;;;;;;1.23;0.90;;;8.60;92.90;;;;;;5067749;28;20051;-41
2021/03/09 11:10:57;;;;;;;1.85;1.02;;;8.50;93.60;;;;;;5067495;28;20111;-38
2021/03/09 11:13:23;;;;;;;2.15;0.90;;;8.50;93.60;;;;;;5066819;28;20107;-39
2021/03/09 11:15:49;;;;;;;3.03;1.70;;;8.40;92.60;;;;;;5067286;28;20043;-41
2021/03/09 11:18:15;;;;;;;1.45;1.08;;;8.40;92.70;;;;;;5067104;28;20110;-40
2021/03/09 11:20:41;;;;;;;3.63;1.20;;;8.40;93.00;;;;;;5066310;28;20029;-41
2021/03/09 11:23:07;;;;;;;1.30;1.20;;;8.40;93.30;;;;;;5067367;28;20070;-37
2021/03/09 11:25:34;;;;;;;1.52;1.15;;;8.50;92.60;;;;;;5062424;28;20013;-41
2021/03/09 11:28:00;;;;;;;1.20;1.10;;;8.60;92.60;;;;;;5064476;28;20032;-42
2021/03/09 11:30:26;;;;;;;1.98;1.40;;;8.60;93.00;;;;;;5063811;28;20529;-40
2021/03/09 11:32:51;;;;;;;2.67;1.20;;;8.60;92.40;;;;;;5062921;28;20037;-42
2021/03/09 11:35:17;;;;;;;2.83;1.40;;;8.50;92.80;;;;;;5065522;28;20070;-39
2021/03/09 11:37:43;;;;;;;1.50;1.10;;;8.50;93.00;;;;;;5058203;28;20131;-39
2021/03/09 11:40:09;;;;;;;1.10;1.00;;;8.50;93.10;;;;;;5063741;28;20005;-42
2021/03/09 11:42:35;;;;;;;1.98;0.95;;;8.40;92.90;;;;;;5066147;28;20021;-37
2021/03/09 11:45:00;;;;;;;1.60;0.80;;;8.30;93.00;;;;;;5066730;28;20476;-37
2021/03/09 11:47:26;;;;;;;1.80;0.70;;;8.10;93.20;;;;;;5066330;28;20116;-38
2021/03/09 11:49:51;;;;;;;2.90;1.13;;;7.90;93.60;;;;;;5066002;28;20113;-39
2021/03/09 11:52:17;;;;;;;1.85;0.93;;;7.80;94.30;;;;;;5065736;28;20028;-40
2021/03/09 11:54:42;;;;;;;1.60;1.13;;;7.80;94.20;;;;;;5063802;28;20028;-40
2021/03/09 11:57:08;;;;;;;1.25;0.93;;;7.70;94.00;;;;;;5065895;28;20032;-40
2021/03/09 11:59:33;;;;;;;2.95;1.20;;;7.80;94.20;;;;;;5066457;28;20049;-40
2021/03/09 12:01:59;;;;;;;3.22;1.50;;;7.80;94.20;;;;;;5066358;28;20384;-40
2021/03/09 12:04:25;;;;;;;2.13;1.10;;;7.90;94.00;;;;;;5065222;28;20511;-37
2021/03/09 12:06:50;;;;;;;1.70;1.00;;;8.00;94.10;;;;;;5064827;28;20036;-40
2021/03/09 12:09:16;;;;;;;4.22;1.70;;;8.20;94.00;;;;;;5066256;28;20452;-39
2021/03/09 12:11:41;;;;;;;1.52;1.00;;;8.30;93.70;;;;;;5066003;28;20139;-39
2021/03/09 12:14:07;;;;;;;2.05;1.30;;;8.30;93.80;;;;;;5063804;28;20021;-41
2021/03/09 12:16:33;;;;;;;3.00;1.50;;;8.40;93.80;;;;;;5065503;28;20102;-40
2021/03/09 12:18:58;;;;;;;3.15;1.42;;;8.50;92.70;;;;;;5065656;28;20016;-40
2021/03/09 12:21:24;;;;;;;2.45;1.40;;;8.40;92.90;;;;;;5063675;28;20031;-41
2021/03/09 12:23:51;;;;;;;3.92;1.67;;;8.30;92.70;;;;;;5063963;28;20055;-42
2021/03/09 12:26:19;;;;;;;3.75;2.15;;;8.30;93.10;;;;;;5064072;28;20519;-38
2021/03/09 12:28:45;;;;;;;2.78;1.70;;;8.40;92.90;;;;;;5065723;28;20680;-38
2021/03/09 12:31:10;;;;;;;3.55;1.60;;;8.40;92.90;;;;;;5059700;28;20223;-39
2021/03/09 12:33:36;;;;;;;3.35;1.02;;;8.50;92.70;;;;;;5061457;28;20421;-38
2021/03/09 12:36:02;;;;;;;1.77;1.00;;;8.60;92.90;;;;;;5061345;28;20032;-39
2021/03/09 12:38:28;;;;;;;2.67;1.13;;;8.60;92.70;;;;;;5065166;28;20037;-39
2021/03/09 12:40:57;;;;;;;1.10;1.00;;;8.60;92.10;;;;;;5057999;28;20683;-37
2021/03/09 12:43:23;;;;;;;1.52;1.33;;;8.50;92.30;;;;;;5061326;28;20027;-39
2021/03/09 12:45:48;;;;;;;2.38;1.10;;;8.40;91.80;;;;;;5064823;28;20024;-40
2021/03/09 12:48:14;;;;;;;1.90;0.90;;;8.30;92.20;;;;;;5063968;28;20025;-40
2021/03/09 12:50:39;;;;;;;1.27;1.10;;;8.20;92.40;;;;;;5051310;28;20199;-39
2021/03/09 12:53:05;;;;;;;1.35;0.90;;;8.10;92.70;;;;;;5057102;28;20702;-40
2021/03/09 12:55:31;;;;;;;2.42;1.05;;;8.00;93.00;;;;;;5060525;28;20032;-39